createdAt,value
2022-12-26T00:02:03.765Z,8.70
2022-12-26T00:04:51.799Z,9.16
2022-12-26T00:07:23.650Z,7.91
2022-12-26T00:09:54.382Z,9.18
2022-12-26T00:12:23.446Z,8.82
2022-12-26T00:14:53.187Z,8.29
2022-12-26T00:17:23.570Z,8.55
2022-12-26T00:19:52.143Z,8.87
2022-12-26T00:22:20.885Z,9.17
2022-12-26T00:24:49.606Z,8.95
2022-12-26T00:27:18.152Z,8.61
2022-12-26T00:29:51.899Z,8.67
2022-12-26T00:32:21.999Z,9.22
2022-12-26T00:34:52.268Z,9.23
2022-12-26T00:37:23.780Z,9.24
2022-12-26T00:39:53.585Z,8.70
2022-12-26T00:42:22.769Z,9.24
2022-12-26T00:44:51.772Z,9.25
2022-12-26T00:47:21.993Z,8.80
2022-12-26T00:50:13.324Z,8.81
2022-12-26T00:52:39.631Z,9.22
2022-12-26T00:55:09.231Z,9.25
2022-12-26T00:57:39.617Z,9.33
2022-12-26T01:00:10.034Z,9.36
2022-12-26T01:02:41.378Z,8.59
2022-12-26T01:05:13.071Z,9.07
2022-12-26T01:08:20.103Z,8.95
2022-12-26T01:10:34.159Z,9.21
2022-12-26T01:13:04.603Z,9.21
2022-12-26T01:15:33.572Z,9.20
2022-12-26T01:18:04.288Z,9.22
2022-12-26T01:20:36.029Z,8.60
2022-12-26T01:23:06.625Z,9.23
2022-12-26T01:25:35.620Z,9.22
2022-12-26T01:28:04.907Z,9.23
2022-12-26T01:30:38.366Z,9.18
2022-12-26T01:33:11.856Z,9.22
2022-12-26T01:35:40.610Z,9.20
2022-12-26T01:38:09.431Z,9.16
2022-12-26T01:40:43.481Z,9.13
2022-12-26T01:43:14.040Z,8.30
2022-12-26T01:45:51.831Z,8.93
2022-12-26T01:48:33.472Z,9.01
2022-12-26T01:51:07.088Z,8.52
2022-12-26T01:53:40.761Z,9.02
2022-12-26T01:56:16.203Z,8.47
2022-12-26T01:58:51.313Z,8.85
2022-12-26T02:01:23.540Z,7.85
2022-12-26T02:04:13.718Z,8.89
2022-12-26T02:06:43.010Z,8.21
2022-12-26T02:09:12.103Z,8.39
2022-12-26T02:11:46.522Z,8.55
2022-12-26T02:14:15.560Z,8.82
2022-12-26T02:16:44.409Z,8.83
2022-12-26T02:19:35.354Z,7.50
2022-12-26T02:22:47.450Z,8.37
2022-12-26T02:26:09.545Z,8.89
2022-12-26T02:29:16.705Z,8.93
2022-12-26T02:31:57.431Z,8.37
2022-12-26T02:34:42.579Z,7.45
2022-12-26T02:37:30.123Z,8.98
2022-12-26T02:40:21.177Z,7.75
2022-12-26T02:43:07.520Z,7.51
2022-12-26T02:46:02.873Z,8.73
2022-12-26T02:48:47.807Z,9.06
2022-12-26T02:51:54.248Z,9.18
2022-12-26T02:54:50.849Z,8.81
2022-12-26T02:57:42.990Z,9.10
2022-12-26T03:00:41.186Z,9.40
2022-12-26T03:03:33.994Z,8.88
2022-12-26T03:06:32.297Z,9.57
2022-12-26T03:09:24.632Z,8.99
2022-12-26T03:12:18.775Z,9.65
2022-12-26T03:14:57.106Z,9.65
2022-12-26T03:17:33.898Z,9.61
2022-12-26T03:20:11.219Z,8.72
2022-12-26T03:22:50.108Z,9.18
2022-12-26T03:25:46.046Z,9.30
2022-12-26T03:28:19.081Z,9.31
2022-12-26T03:30:49.488Z,9.23
2022-12-26T03:33:47.533Z,9.36
2022-12-26T03:36:31.825Z,8.75
2022-12-26T03:39:15.022Z,8.88
2022-12-26T03:42:11.968Z,9.19
2022-12-26T03:45:14.465Z,9.36
2022-12-26T03:48:10.432Z,9.08
2022-12-26T03:51:04.296Z,9.35
2022-12-26T03:54:00.582Z,9.41
2022-12-26T03:56:58.844Z,9.72
2022-12-26T03:59:52.463Z,9.76
2022-12-26T04:02:40.719Z,9.83
2022-12-26T04:05:33.422Z,9.47
2022-12-26T04:08:30.521Z,9.94
2022-12-26T04:11:20.989Z,10.00
2022-12-26T04:14:17.762Z,9.92
2022-12-26T04:17:14.828Z,9.84
2022-12-26T04:20:03.043Z,9.83
2022-12-26T04:23:03.083Z,8.76
2022-12-26T04:25:59.119Z,9.78
2022-12-26T04:28:45.291Z,9.68
2022-12-26T04:31:41.809Z,9.71
2022-12-26T04:34:40.235Z,9.96
2022-12-26T04:37:40.001Z,10.06
2022-12-26T04:40:34.459Z,9.99
2022-12-26T04:43:50.340Z,10.18
2022-12-26T04:46:12.084Z,10.26
2022-12-26T04:49:04.809Z,10.05
2022-12-26T04:51:36.296Z,10.15
2022-12-26T04:54:06.818Z,10.37
2022-12-26T04:56:35.868Z,10.04
2022-12-26T04:59:04.867Z,10.43
2022-12-26T05:01:50.818Z,10.50
2022-12-26T05:04:38.790Z,10.58
2022-12-26T05:07:34.267Z,10.56
2022-12-26T05:10:04.522Z,10.75
2022-12-26T05:12:33.133Z,10.37
2022-12-26T05:15:02.259Z,10.90
2022-12-26T05:17:48.190Z,10.58
2022-12-26T05:20:35.574Z,10.98
2022-12-26T05:23:36.523Z,11.01
2022-12-26T05:26:38.631Z,11.13
2022-12-26T05:29:07.806Z,11.17
2022-12-26T05:31:37.402Z,11.18
2022-12-26T05:34:06.032Z,10.47
2022-12-26T05:36:42.039Z,9.87
2022-12-26T05:39:11.084Z,11.06
2022-12-26T05:41:40.572Z,10.75
2022-12-26T05:44:10.523Z,11.37
2022-12-26T05:46:41.461Z,11.32
2022-12-26T05:49:10.786Z,11.39
2022-12-26T05:51:42.247Z,10.08
2022-12-26T05:54:13.680Z,11.42
2022-12-26T05:56:48.954Z,11.40
2022-12-26T05:59:17.879Z,11.13
2022-12-26T06:01:50.747Z,11.43
2022-12-26T06:04:19.554Z,11.26
2022-12-26T06:06:50.026Z,11.35
2022-12-26T06:09:18.687Z,10.69
2022-12-26T06:11:49.153Z,9.51
2022-12-26T06:14:18.204Z,10.92
2022-12-26T06:16:46.809Z,10.04
2022-12-26T06:19:15.417Z,10.21
2022-12-26T06:21:45.350Z,10.20
2022-12-26T06:24:16.587Z,11.15
2022-12-26T06:26:52.640Z,11.17
2022-12-26T06:29:24.191Z,11.22
2022-12-26T06:31:52.911Z,11.24
2022-12-26T06:34:22.768Z,11.32
2022-12-26T06:36:55.543Z,11.32
2022-12-26T06:39:25.824Z,10.93
2022-12-26T06:41:55.455Z,11.38
2022-12-26T06:44:26.962Z,11.17
2022-12-26T06:46:55.566Z,10.36
2022-12-26T06:49:32.155Z,11.36
2022-12-26T06:52:01.498Z,10.44
2022-12-26T06:54:31.488Z,10.82
2022-12-26T06:57:00.740Z,11.35
2022-12-26T06:59:30.861Z,10.64
2022-12-26T07:02:03.756Z,11.37
2022-12-26T07:04:36.257Z,11.40
2022-12-26T07:07:05.240Z,11.44
2022-12-26T07:09:35.113Z,10.18
2022-12-26T07:12:03.795Z,11.49
2022-12-26T07:14:34.227Z,11.29
2022-12-26T07:17:04.592Z,11.44
2022-12-26T07:19:33.237Z,10.73
2022-12-26T07:22:02.043Z,10.30
2022-12-26T07:24:31.681Z,11.05
2022-12-26T07:27:01.939Z,10.85
2022-12-26T07:29:32.758Z,10.61
2022-12-26T07:32:01.822Z,10.78
2022-12-26T07:34:32.656Z,11.01
2022-12-26T07:37:07.606Z,11.21
2022-12-26T07:39:40.685Z,11.18
2022-12-26T07:42:12.945Z,11.08
2022-12-26T07:47:37.721Z,10.94
2022-12-26T07:50:07.118Z,11.62
2022-12-26T07:52:38.279Z,11.64
2022-12-26T07:55:08.004Z,11.27
2022-12-26T07:57:48.638Z,10.82
2022-12-26T08:00:20.054Z,11.77
2022-12-26T08:02:50.912Z,11.83
2022-12-26T08:05:20.935Z,11.82
2022-12-26T08:07:50.223Z,11.09
2022-12-26T08:10:25.738Z,11.27
2022-12-26T08:12:55.668Z,10.95
2022-12-26T08:15:27.182Z,11.47
2022-12-26T08:17:55.909Z,11.99
2022-12-26T08:20:24.774Z,12.10
2022-12-26T08:22:53.265Z,12.09
2022-12-26T08:25:22.413Z,12.40
2022-12-26T08:28:01.526Z,12.05
2022-12-26T08:30:32.165Z,12.53
2022-12-26T08:33:00.707Z,11.97
2022-12-26T08:35:30.237Z,12.69
2022-12-26T08:38:00.343Z,12.80
2022-12-26T08:40:44.029Z,12.91
2022-12-26T08:43:34.831Z,11.87
2022-12-26T08:46:07.046Z,13.03
2022-12-26T08:48:41.407Z,11.71
2022-12-26T08:51:13.868Z,13.11
2022-12-26T08:53:43.828Z,13.11
2022-12-26T08:56:18.811Z,12.42
2022-12-26T08:58:49.453Z,13.22
2022-12-26T09:01:27.260Z,13.17
2022-12-26T09:03:58.931Z,13.24
2022-12-26T09:06:35.657Z,13.30
2022-12-26T09:09:09.698Z,13.01
2022-12-26T09:11:39.095Z,12.79
2022-12-26T09:14:09.422Z,13.19
2022-12-26T09:16:49.724Z,12.80
2022-12-26T09:19:20.828Z,12.92
2022-12-26T09:22:13.191Z,12.96
2022-12-26T09:24:41.915Z,12.32
2022-12-26T09:27:13.185Z,12.58
2022-12-26T09:29:46.459Z,12.96
2022-12-26T09:32:17.081Z,12.45
2022-12-26T09:34:53.277Z,11.26
2022-12-26T09:37:23.809Z,11.56
2022-12-26T09:39:52.464Z,12.70
2022-12-26T09:42:39.207Z,11.87
2022-12-26T09:45:17.256Z,12.75
2022-12-26T09:48:11.623Z,11.97
2022-12-26T09:50:47.906Z,11.98
2022-12-26T09:53:31.578Z,12.57
2022-12-26T09:56:06.584Z,12.07
2022-12-26T09:58:47.476Z,12.24
2022-12-26T10:01:21.207Z,11.93
2022-12-26T10:03:54.980Z,11.77
2022-12-26T10:06:26.410Z,12.64
2022-12-26T10:09:34.048Z,12.46
2022-12-26T10:12:36.024Z,11.91
2022-12-26T10:15:26.061Z,12.50
2022-12-26T10:18:10.791Z,12.29
2022-12-26T10:21:05.112Z,12.50
2022-12-26T10:23:40.094Z,12.22
2022-12-26T10:26:17.418Z,12.01
2022-12-26T10:28:53.124Z,12.58
2022-12-26T10:31:32.552Z,11.55
2022-12-26T10:34:13.935Z,12.69
2022-12-26T10:36:48.574Z,11.72
2022-12-26T10:39:26.447Z,11.71
2022-12-26T10:42:00.845Z,12.61
2022-12-26T10:44:29.956Z,11.46
2022-12-26T10:47:21.069Z,12.58
2022-12-26T10:49:53.822Z,12.11
2022-12-26T10:52:30.935Z,12.35
2022-12-26T10:55:28.791Z,12.88
2022-12-26T10:57:54.523Z,12.82
2022-12-26T11:00:29.577Z,12.68
2022-12-26T11:03:07.861Z,12.35
2022-12-26T11:06:07.635Z,11.86
2022-12-26T11:08:43.890Z,12.36
2022-12-26T11:11:25.825Z,12.55
2022-12-26T11:14:02.187Z,12.90
2022-12-26T11:16:36.062Z,12.52
2022-12-26T11:19:05.557Z,12.77
2022-12-26T11:21:37.552Z,12.85
2022-12-26T11:24:21.034Z,12.74
2022-12-26T11:26:50.178Z,11.75
2022-12-26T11:29:23.825Z,12.62
2022-12-26T11:32:31.189Z,11.41
2022-12-26T11:35:00.084Z,12.64
2022-12-26T11:37:42.071Z,12.36
2022-12-26T11:40:19.413Z,12.08
2022-12-26T11:42:55.983Z,11.90
2022-12-26T11:45:37.133Z,11.43
2022-12-26T11:48:28.193Z,11.23
2022-12-26T11:50:56.852Z,11.82
2022-12-26T11:53:26.843Z,11.70
2022-12-26T11:56:01.908Z,11.62
2022-12-26T11:58:36.213Z,10.85
2022-12-26T12:01:17.678Z,11.11
2022-12-26T12:03:50.420Z,10.65
2022-12-26T12:07:02.200Z,11.12
2022-12-26T12:09:46.412Z,10.98
2022-12-26T12:12:24.679Z,10.93
2022-12-26T12:15:05.541Z,10.86
2022-12-26T12:17:46.266Z,9.93
2022-12-26T12:20:32.133Z,10.77
2022-12-26T12:23:42.341Z,10.75
2022-12-26T12:26:21.729Z,10.01
2022-12-26T12:29:17.439Z,10.37
2022-12-26T12:32:07.196Z,10.60
2022-12-26T12:35:17.037Z,10.34
2022-12-26T12:38:17.025Z,10.07
2022-12-26T12:41:02.534Z,10.55
2022-12-26T12:43:43.807Z,9.89
2022-12-26T12:46:25.597Z,10.30
2022-12-26T12:49:21.085Z,10.55
2022-12-26T12:52:01.553Z,10.58
2022-12-26T12:55:30.225Z,10.04
2022-12-26T12:58:06.902Z,10.66
2022-12-26T13:00:46.264Z,9.92
2022-12-26T13:03:27.262Z,9.30
2022-12-26T13:06:09.563Z,10.31
2022-12-26T13:08:44.125Z,10.61
2022-12-26T13:11:24.696Z,10.49
2022-12-26T13:14:00.797Z,9.54
2022-12-26T13:16:43.359Z,10.28
2022-12-26T13:19:21.637Z,10.56
2022-12-26T13:21:53.827Z,10.11
2022-12-26T13:24:32.522Z,10.56
2022-12-26T13:27:12.614Z,9.18
2022-12-26T13:29:47.039Z,10.21
2022-12-26T13:32:23.053Z,10.65
2022-12-26T13:34:54.316Z,10.65
2022-12-26T13:37:58.469Z,10.66
2022-12-26T13:40:32.349Z,9.48
2022-12-26T13:43:28.486Z,9.12
2022-12-26T13:45:58.767Z,9.73
2022-12-26T13:48:59.796Z,10.59
2022-12-26T13:51:59.156Z,10.56
2022-12-26T13:54:31.038Z,10.51
2022-12-26T13:57:40.367Z,10.43
2022-12-26T14:00:19.234Z,9.98
2022-12-26T14:03:28.555Z,10.40
2022-12-26T14:06:41.731Z,10.38
2022-12-26T14:10:03.730Z,10.10
2022-12-26T14:12:59.760Z,10.30
2022-12-26T14:15:49.877Z,10.27
2022-12-26T14:18:36.413Z,10.26
2022-12-26T14:21:39.899Z,10.24
2022-12-26T14:24:34.438Z,10.08
2022-12-26T14:27:34.097Z,9.41
2022-12-26T14:30:25.571Z,10.10
2022-12-26T14:33:25.107Z,10.04
2022-12-26T14:36:15.647Z,9.94
2022-12-26T14:38:56.554Z,8.74
2022-12-26T14:41:43.992Z,9.40
2022-12-26T14:44:39.538Z,9.61
2022-12-26T14:47:12.544Z,9.61
2022-12-26T14:49:44.406Z,8.52
2022-12-26T14:52:43.307Z,9.29
2022-12-26T14:55:52.065Z,9.26
2022-12-26T14:58:42.875Z,9.26
2022-12-26T15:01:51.058Z,9.31
2022-12-26T15:05:06.447Z,9.35
2022-12-26T15:08:19.775Z,8.96
2022-12-26T15:11:41.186Z,8.88
2022-12-26T15:15:03.523Z,9.12
2022-12-26T15:17:49.247Z,8.94
2022-12-26T15:20:53.604Z,9.15
2022-12-26T15:24:21.898Z,9.05
2022-12-26T15:27:54.920Z,9.11
2022-12-26T15:30:45.314Z,8.35
2022-12-26T15:33:26.605Z,8.13
2022-12-26T15:36:07.052Z,8.89
2022-12-26T15:38:48.996Z,8.68
2022-12-26T15:41:36.036Z,8.51
2022-12-26T15:44:34.177Z,8.48
2022-12-26T15:47:20.705Z,8.68
2022-12-26T15:50:21.368Z,8.03
2022-12-26T15:53:09.546Z,8.27
2022-12-26T15:56:06.591Z,8.28
2022-12-26T15:59:10.780Z,8.10
2022-12-26T16:01:44.502Z,7.75
2022-12-26T16:04:26.925Z,6.86
2022-12-26T16:07:20.291Z,8.12
2022-12-26T16:09:57.815Z,7.13
2022-12-26T16:12:31.423Z,7.91
2022-12-26T16:15:19.272Z,7.95
2022-12-26T16:17:52.860Z,7.64
2022-12-26T16:20:50.180Z,7.79
2022-12-26T16:23:24.204Z,7.73
2022-12-26T16:25:57.787Z,7.71
2022-12-26T16:28:35.483Z,7.45
2022-12-26T16:31:12.535Z,7.17
2022-12-26T16:33:49.606Z,7.45
2022-12-26T16:36:26.885Z,6.48
2022-12-26T16:38:57.265Z,7.33
2022-12-26T16:41:31.236Z,7.32
2022-12-26T16:44:31.088Z,7.34
2022-12-26T16:47:11.556Z,7.27
2022-12-26T16:49:45.756Z,7.20
2022-12-26T16:52:43.694Z,7.03
2022-12-26T16:55:41.525Z,7.19
2022-12-26T16:58:25.874Z,6.96
2022-12-26T17:01:14.225Z,7.00
2022-12-26T17:03:57.433Z,5.88
2022-12-26T17:06:34.243Z,6.55
2022-12-26T17:09:11.162Z,7.09
2022-12-26T17:12:01.061Z,7.07
2022-12-26T17:14:35.637Z,7.20
2022-12-26T17:17:09.620Z,7.10
2022-12-26T17:19:39.905Z,7.23
2022-12-26T17:22:31.869Z,7.29
2022-12-26T17:25:26.491Z,7.44
2022-12-26T17:28:25.587Z,7.32
2022-12-26T17:30:55.199Z,7.63
2022-12-26T17:33:28.543Z,7.66
2022-12-26T17:38:55.590Z,7.69
2022-12-26T17:41:24.577Z,7.53
2022-12-26T17:43:58.232Z,7.49
2022-12-26T17:46:28.685Z,7.68
2022-12-26T17:48:57.305Z,6.21
2022-12-26T17:51:26.132Z,7.60
2022-12-26T17:53:56.961Z,7.69
2022-12-26T17:56:27.388Z,6.99
2022-12-26T17:58:56.529Z,7.77
2022-12-26T18:01:25.970Z,7.85
2022-12-26T18:03:55.219Z,7.90
2022-12-26T18:06:24.483Z,6.77
2022-12-26T18:08:56.185Z,7.64
2022-12-26T18:11:25.785Z,7.09
2022-12-26T18:13:54.667Z,7.14
2022-12-26T18:16:28.275Z,8.00
2022-12-26T18:19:00.685Z,7.77
2022-12-26T18:21:33.127Z,8.11
2022-12-26T18:24:03.864Z,8.16
2022-12-26T18:26:33.947Z,7.64
2022-12-26T18:29:03.472Z,8.24
2022-12-26T18:31:33.116Z,7.85
2022-12-26T18:34:02.159Z,8.17
2022-12-26T18:36:35.165Z,8.19
2022-12-26T18:39:07.089Z,8.36
2022-12-26T18:41:36.327Z,8.38
2022-12-26T18:44:05.657Z,8.20
2022-12-26T18:46:37.468Z,8.31
2022-12-26T18:49:06.495Z,8.45
2022-12-26T18:51:37.832Z,7.48
2022-12-26T18:54:08.122Z,7.29
2022-12-26T18:56:37.464Z,8.46
2022-12-26T18:59:06.518Z,8.44
2022-12-26T19:01:35.445Z,8.41
2022-12-26T19:04:04.552Z,7.62
2022-12-26T19:06:35.442Z,8.21
2022-12-26T19:09:06.119Z,8.08
2022-12-26T19:11:38.457Z,7.48
2022-12-26T19:14:11.220Z,7.88
2022-12-26T19:16:40.204Z,8.33
2022-12-26T19:19:08.919Z,7.34
2022-12-26T19:21:37.693Z,7.34
2022-12-26T19:24:06.882Z,8.56
2022-12-26T19:26:37.069Z,8.30
2022-12-26T19:29:06.254Z,8.63
2022-12-26T19:31:35.025Z,8.68
2022-12-26T19:34:03.759Z,8.44
2022-12-26T19:36:32.697Z,8.81
2022-12-26T19:39:01.672Z,8.70
2022-12-26T19:41:30.358Z,8.84
2022-12-26T19:44:02.445Z,8.87
2022-12-26T19:46:31.860Z,8.63
2022-12-26T19:49:00.550Z,6.79
2022-12-26T19:51:29.446Z,8.17
2022-12-26T19:53:58.287Z,8.11
2022-12-26T19:56:31.174Z,7.90
2022-12-26T19:59:03.130Z,7.62
2022-12-26T20:01:36.826Z,7.67
2022-12-26T20:04:08.257Z,7.24
2022-12-26T20:06:39.402Z,7.80
2022-12-26T20:09:14.499Z,7.05
2022-12-26T20:11:46.795Z,7.71
2022-12-26T20:14:19.468Z,7.51
2022-12-26T20:17:08.788Z,7.90
2022-12-26T20:19:38.876Z,6.86
2022-12-26T20:22:08.881Z,6.98
2022-12-26T20:24:38.031Z,7.71
2022-12-26T20:27:10.370Z,7.70
2022-12-26T20:29:41.192Z,6.94
2022-12-26T20:32:16.456Z,6.63
2022-12-26T20:34:47.252Z,7.70
2022-12-26T20:37:16.554Z,7.73
2022-12-26T20:39:47.113Z,6.41
2022-12-26T20:42:16.437Z,7.59
2022-12-26T20:44:47.090Z,7.58
2022-12-26T20:47:17.940Z,7.53
2022-12-26T20:49:47.386Z,7.49
2022-12-26T20:52:16.631Z,7.14
2022-12-26T20:54:46.944Z,7.38
2022-12-26T20:57:17.557Z,7.39
2022-12-26T20:59:49.581Z,6.72
2022-12-26T21:02:18.832Z,7.35
2022-12-26T21:04:49.895Z,7.05
2022-12-26T21:07:20.981Z,6.74
2022-12-26T21:09:50.096Z,7.36
2022-12-26T21:12:19.248Z,7.39
2022-12-26T21:14:50.521Z,7.20
2022-12-26T21:17:19.292Z,6.80
2022-12-26T21:19:49.456Z,7.23
2022-12-26T21:22:18.334Z,6.60
2022-12-26T21:24:47.475Z,5.88
2022-12-26T21:27:16.157Z,7.34
2022-12-26T21:29:44.998Z,7.07
2022-12-26T21:32:15.230Z,5.82
2022-12-26T21:34:44.426Z,7.29
2022-12-26T21:37:43.876Z,6.02
2022-12-26T21:40:28.014Z,5.69
2022-12-26T21:42:58.333Z,7.29
2022-12-26T21:45:27.581Z,7.27
2022-12-26T21:48:15.272Z,6.99
2022-12-26T21:50:50.726Z,7.26
2022-12-26T21:53:25.458Z,7.01
2022-12-26T21:56:20.022Z,6.94
2022-12-26T21:59:11.447Z,6.91
2022-12-26T22:01:46.958Z,5.44
2022-12-26T22:04:21.953Z,5.09
2022-12-26T22:06:55.021Z,6.88
2022-12-26T22:09:27.490Z,6.80
2022-12-26T22:12:17.812Z,5.19
2022-12-26T22:14:46.842Z,6.80
2022-12-26T22:17:17.798Z,6.70
2022-12-26T22:19:48.320Z,6.65
2022-12-26T22:22:17.336Z,6.71
2022-12-26T22:24:46.125Z,6.78
2022-12-26T22:27:14.945Z,6.82
2022-12-26T22:29:47.624Z,6.88
2022-12-26T22:32:18.533Z,6.82
2022-12-26T22:34:51.528Z,6.84
2022-12-26T22:37:28.014Z,6.68
2022-12-26T22:39:57.183Z,6.69
2022-12-26T22:42:26.205Z,6.68
2022-12-26T22:44:57.281Z,6.72
2022-12-26T22:47:28.490Z,6.67
2022-12-26T22:50:01.065Z,4.76
2022-12-26T22:52:33.153Z,6.44
2022-12-26T22:55:02.930Z,6.43
2022-12-26T22:57:37.363Z,6.29
2022-12-26T23:00:11.363Z,6.12
2022-12-26T23:02:40.270Z,5.06
2022-12-26T23:05:19.863Z,6.22
2022-12-26T23:07:50.964Z,5.73
2022-12-26T23:10:24.509Z,6.07
2022-12-26T23:12:54.074Z,6.15
2022-12-26T23:15:30.728Z,6.04
2022-12-26T23:18:35.151Z,5.60
2022-12-26T23:21:38.922Z,5.99
2022-12-26T23:24:10.493Z,5.96
2022-12-26T23:26:39.594Z,5.79
2022-12-26T23:29:26.533Z,5.33
2022-12-26T23:31:59.754Z,5.92
2022-12-26T23:34:29.794Z,5.75
2022-12-26T23:36:59.790Z,5.53
2022-12-26T23:39:29.917Z,5.93
2022-12-26T23:41:58.709Z,5.89
2022-12-26T23:44:28.045Z,5.90
2022-12-26T23:46:56.811Z,5.71
2022-12-26T23:49:27.387Z,5.56
2022-12-26T23:51:59.210Z,5.33
2022-12-26T23:54:30.374Z,4.28
2022-12-26T23:57:05.477Z,5.59
2022-12-26T23:59:37.778Z,5.26
